createdAt,value
2018-06-10T00:00:24.550Z,96.90
2018-06-10T00:02:52.693Z,97.30
2018-06-10T00:05:20.832Z,95.90
2018-06-10T00:07:49.026Z,95.60
2018-06-10T00:10:17.456Z,95.30
2018-06-10T00:12:45.601Z,95.60
2018-06-10T00:15:13.743Z,95.50
2018-06-10T00:17:42.641Z,95.70
2018-06-10T00:20:11.553Z,94.90
2018-06-10T00:22:39.677Z,94.70
2018-06-10T00:25:08.423Z,94.70
2018-06-10T00:27:36.546Z,94.90
2018-06-10T00:30:04.693Z,95.20
2018-06-10T00:32:34.230Z,95.90
2018-06-10T00:35:02.646Z,96.10
2018-06-10T00:37:32.317Z,96.50
2018-06-10T00:40:00.435Z,96.50
2018-06-10T00:42:28.581Z,96.60
2018-06-10T00:44:56.730Z,97.50
2018-06-10T00:47:24.927Z,97.90
2018-06-10T00:49:53.069Z,95.90
2018-06-10T00:52:21.200Z,95.70
2018-06-10T00:54:49.322Z,95.70
2018-06-10T00:57:20.691Z,96.90
2018-06-10T00:59:56.281Z,98.40
2018-06-10T01:02:24.410Z,98.70
2018-06-10T01:04:55.761Z,98.50
2018-06-10T01:07:27.518Z,96.50
2018-06-10T01:09:56.487Z,96.90
2018-06-10T01:12:24.693Z,98.70
2018-06-10T01:14:53.589Z,99.70
2018-06-10T01:17:24.517Z,99.70
2018-06-10T01:19:52.660Z,98.40
2018-06-10T01:22:21.756Z,99.10
2018-06-10T01:24:49.904Z,99.10
2018-06-10T01:27:22.555Z,99.30
2018-06-10T01:29:50.675Z,99.70
2018-06-10T01:32:19.546Z,99.90
2018-06-10T01:34:47.629Z,99.90
2018-06-10T01:37:17.628Z,99.70
2018-06-10T01:39:45.775Z,99.90
2018-06-10T01:42:14.678Z,98.80
2018-06-10T01:44:42.804Z,98.40
2018-06-10T01:47:11.863Z,98.50
2018-06-10T01:49:40.745Z,95.60
2018-06-10T01:52:08.881Z,95.60
2018-06-10T01:54:37.735Z,93.60
2018-06-10T01:57:13.004Z,95.80
2018-06-10T01:59:41.199Z,96.90
2018-06-10T02:02:09.920Z,98.70
2018-06-10T02:04:38.106Z,99.80
2018-06-10T02:07:09.319Z,99.60
2018-06-10T02:09:37.575Z,99.80
2018-06-10T02:12:05.734Z,99.90
2018-06-10T02:14:33.866Z,99.90
2018-06-10T02:17:02.001Z,99.90
2018-06-10T02:19:30.149Z,99.90
2018-06-10T02:21:58.278Z,99.40
2018-06-10T02:24:26.421Z,99.30
2018-06-10T02:26:55.517Z,96.50
2018-06-10T02:29:23.643Z,96.10
2018-06-10T02:31:51.773Z,96.40
2018-06-10T02:34:21.525Z,97.70
2018-06-10T02:36:49.670Z,97.50
2018-06-10T02:39:17.805Z,98.10
2018-06-10T02:41:45.914Z,99.20
2018-06-10T02:44:14.620Z,98.70
2018-06-10T02:46:42.760Z,98.90
2018-06-10T02:49:11.140Z,99.00
2018-06-10T02:51:40.037Z,99.50
2018-06-10T02:54:08.169Z,99.50
2018-06-10T02:56:36.290Z,97.90
2018-06-10T02:59:04.486Z,98.20
2018-06-10T03:01:33.558Z,97.50
2018-06-10T03:04:01.728Z,97.50
2018-06-10T03:06:31.651Z,97.60
2018-06-10T03:08:59.822Z,97.30
2018-06-10T03:11:29.861Z,97.80
2018-06-10T03:13:58.008Z,97.50
2018-06-10T03:16:26.173Z,97.50
2018-06-10T03:18:55.533Z,97.50
2018-06-10T03:21:23.650Z,97.60
2018-06-10T03:23:51.776Z,98.50
2018-06-10T03:26:23.781Z,99.40
2018-06-10T03:28:56.430Z,99.90
2018-06-10T03:31:24.572Z,99.90
2018-06-10T03:33:54.760Z,99.90
2018-06-10T03:36:23.653Z,99.90
2018-06-10T03:38:51.785Z,99.90
2018-06-10T03:41:19.914Z,99.90
2018-06-10T03:43:48.038Z,99.90
2018-06-10T03:46:20.020Z,99.90
2018-06-10T03:48:48.150Z,99.90
2018-06-10T03:51:17.204Z,99.90
2018-06-10T03:53:45.728Z,99.90
2018-06-10T03:56:29.317Z,99.90
2018-06-10T03:58:57.574Z,99.90
2018-06-10T04:01:25.696Z,99.90
2018-06-10T04:03:53.896Z,99.90
2018-06-10T04:06:22.017Z,99.80
2018-06-10T04:08:50.165Z,99.50
2018-06-10T04:11:18.286Z,98.80
2018-06-10T04:13:47.704Z,98.70
2018-06-10T04:16:16.008Z,98.70
2018-06-10T04:18:44.143Z,98.10
2018-06-10T04:21:12.669Z,98.00
2018-06-10T04:23:41.855Z,98.60
2018-06-10T04:26:10.062Z,98.60
2018-06-10T04:28:38.194Z,98.90
2018-06-10T04:31:06.324Z,98.80
2018-06-10T04:33:35.687Z,98.50
2018-06-10T04:36:05.820Z,98.50
2018-06-10T04:38:33.952Z,98.50
2018-06-10T04:41:02.155Z,97.40
2018-06-10T04:43:30.282Z,96.70
2018-06-10T04:45:58.528Z,96.90
2018-06-10T04:48:26.664Z,95.30
2018-06-10T04:50:54.799Z,94.60
2018-06-10T04:53:22.923Z,95.70
2018-06-10T04:55:51.060Z,96.00
2018-06-10T04:58:19.258Z,95.90
2018-06-10T05:00:47.386Z,95.80
2018-06-10T05:03:15.529Z,94.20
2018-06-10T05:05:43.723Z,93.20
2018-06-10T05:08:13.549Z,93.70
2018-06-10T05:10:41.705Z,92.90
2018-06-10T05:13:09.853Z,92.50
2018-06-10T05:15:38.046Z,92.80
2018-06-10T05:18:06.187Z,92.90
2018-06-10T05:20:34.318Z,91.90
2018-06-10T05:23:02.445Z,92.60
2018-06-10T05:25:36.574Z,91.50
2018-06-10T05:28:04.713Z,92.50
2018-06-10T05:30:32.847Z,92.00
2018-06-10T05:33:00.982Z,92.20
2018-06-10T05:35:34.475Z,91.90
2018-06-10T05:38:04.623Z,92.60
2018-06-10T05:40:33.539Z,92.90
2018-06-10T05:43:01.661Z,92.50
2018-06-10T05:48:23.137Z,90.80
2018-06-10T05:50:51.251Z,90.70
2018-06-10T05:53:19.376Z,89.10
2018-06-10T05:55:52.412Z,89.70
2018-06-10T05:58:21.254Z,88.00
2018-06-10T06:00:50.182Z,88.90
2018-06-10T06:03:19.090Z,88.40
2018-06-10T06:05:48.277Z,87.30
2018-06-10T06:08:17.366Z,84.90
2018-06-10T06:10:45.609Z,82.50
2018-06-10T06:13:17.175Z,85.00
2018-06-10T06:15:45.282Z,83.60
2018-06-10T06:18:16.144Z,81.40
2018-06-10T06:20:44.273Z,79.70
2018-06-10T06:23:12.563Z,79.40
2018-06-10T06:25:41.498Z,80.00
2018-06-10T06:28:10.911Z,79.20
2018-06-10T06:30:40.800Z,79.40
2018-06-10T06:33:09.353Z,78.90
2018-06-10T06:35:37.999Z,78.70
2018-06-10T06:38:06.972Z,77.30
2018-06-10T06:40:36.137Z,71.90
2018-06-10T06:43:05.283Z,75.20
2018-06-10T06:45:33.833Z,73.10
2018-06-10T06:48:02.011Z,74.10
2018-06-10T06:50:30.312Z,71.20
2018-06-10T06:52:58.430Z,72.40
2018-06-10T06:55:26.660Z,71.40
2018-06-10T06:57:54.823Z,70.00
2018-06-10T07:00:22.987Z,69.20
2018-06-10T07:02:51.131Z,69.10
2018-06-10T07:05:20.747Z,69.30
2018-06-10T07:07:48.912Z,69.50
2018-06-10T07:10:17.163Z,71.00
2018-06-10T07:12:45.289Z,70.80
2018-06-10T07:15:14.163Z,67.60
2018-06-10T07:17:42.373Z,66.10
2018-06-10T07:20:11.557Z,61.60
2018-06-10T07:22:39.694Z,61.40
2018-06-10T07:25:07.847Z,61.80
2018-06-10T07:27:37.599Z,64.40
2018-06-10T07:30:05.712Z,62.20
2018-06-10T07:32:34.608Z,61.20
2018-06-10T07:35:04.252Z,60.50
2018-06-10T07:37:32.389Z,60.90
2018-06-10T07:40:02.108Z,61.70
2018-06-10T07:42:30.997Z,60.20
2018-06-10T07:44:59.532Z,60.10
2018-06-10T07:47:27.662Z,56.70
2018-06-10T07:49:55.798Z,59.00
2018-06-10T07:52:23.920Z,57.90
2018-06-10T07:54:52.189Z,55.00
2018-06-10T07:57:22.221Z,56.40
2018-06-10T07:59:50.355Z,55.30
2018-06-10T08:02:20.436Z,55.40
2018-06-10T08:04:48.646Z,54.40
2018-06-10T08:07:17.737Z,53.20
2018-06-10T08:09:45.872Z,52.50
2018-06-10T08:12:13.989Z,51.30
2018-06-10T08:14:42.892Z,53.80
2018-06-10T08:17:12.654Z,50.00
2018-06-10T08:19:40.826Z,49.30
2018-06-10T08:22:09.501Z,48.40
2018-06-10T08:24:38.102Z,47.00
2018-06-10T08:27:06.232Z,45.90
2018-06-10T08:29:34.373Z,44.70
2018-06-10T08:32:02.772Z,45.50
2018-06-10T08:34:30.867Z,43.40
2018-06-10T08:37:00.123Z,44.90
2018-06-10T08:39:28.237Z,45.40
2018-06-10T08:41:56.375Z,49.00
2018-06-10T08:44:24.737Z,45.30
2018-06-10T08:46:52.816Z,44.10
2018-06-10T08:49:20.939Z,42.50
2018-06-10T08:51:49.123Z,42.40
2018-06-10T08:54:17.245Z,43.80
2018-06-10T08:56:46.334Z,42.00
2018-06-10T08:59:15.150Z,42.10
2018-06-10T09:01:45.056Z,41.50
2018-06-10T09:04:15.396Z,44.60
2018-06-10T09:06:44.294Z,41.30
2018-06-10T09:09:12.411Z,42.50
2018-06-10T09:11:40.549Z,44.10
2018-06-10T09:14:08.668Z,43.90
2018-06-10T09:16:36.831Z,45.00
2018-06-10T09:19:04.968Z,36.50
2018-06-10T09:21:33.093Z,34.60
2018-06-10T09:24:01.219Z,35.10
2018-06-10T09:26:32.429Z,35.60
2018-06-10T09:29:01.338Z,36.40
2018-06-10T09:31:30.250Z,37.90
2018-06-10T09:33:58.975Z,37.80
2018-06-10T09:36:28.614Z,38.10
2018-06-10T09:38:56.888Z,33.00
2018-06-10T09:41:25.019Z,35.70
2018-06-10T09:43:53.758Z,36.20
2018-06-10T09:46:21.903Z,39.30
2018-06-10T09:48:50.449Z,35.10
2018-06-10T09:51:19.298Z,36.80
2018-06-10T09:53:47.426Z,36.40
2018-06-10T09:56:15.629Z,35.70
2018-06-10T09:58:44.888Z,35.20
2018-06-10T10:01:13.781Z,37.00
2018-06-10T10:03:41.911Z,37.00
2018-06-10T10:06:13.846Z,38.00
2018-06-10T10:08:42.278Z,36.10
2018-06-10T10:11:11.235Z,32.70
2018-06-10T10:13:39.763Z,33.00
2018-06-10T10:16:09.027Z,31.30
2018-06-10T10:18:37.911Z,29.30
2018-06-10T10:21:06.038Z,30.70
2018-06-10T10:23:34.138Z,31.30
2018-06-10T10:26:02.331Z,28.80
2018-06-10T10:28:30.449Z,28.00
2018-06-10T10:30:58.659Z,29.40
2018-06-10T10:33:26.828Z,27.70
2018-06-10T10:35:55.018Z,28.40
2018-06-10T10:38:23.139Z,27.10
2018-06-10T10:40:51.348Z,27.10
2018-06-10T10:43:20.196Z,27.20
2018-06-10T10:45:48.830Z,27.30
2018-06-10T10:48:17.346Z,26.00
2018-06-10T10:50:46.464Z,26.20
2018-06-10T10:53:14.613Z,26.60
2018-06-10T10:55:42.855Z,27.00
2018-06-10T10:58:10.979Z,28.80
2018-06-10T11:00:40.903Z,31.30
2018-06-10T11:03:09.030Z,31.50
2018-06-10T11:05:37.194Z,32.40
2018-06-10T11:08:05.778Z,32.70
2018-06-10T11:10:33.906Z,32.70
2018-06-10T11:13:02.021Z,34.10
2018-06-10T11:15:30.138Z,35.80
2018-06-10T11:17:58.277Z,34.90
2018-06-10T11:20:26.380Z,34.50
2018-06-10T11:22:55.253Z,35.40
2018-06-10T11:25:24.219Z,34.10
2018-06-10T11:27:52.354Z,34.10
2018-06-10T11:30:20.482Z,36.30
2018-06-10T11:32:48.619Z,34.20
2018-06-10T11:35:16.742Z,34.50
2018-06-10T11:37:44.852Z,33.40
2018-06-10T11:40:13.203Z,35.50
2018-06-10T11:42:42.934Z,36.10
2018-06-10T11:45:12.287Z,32.60
2018-06-10T11:47:41.443Z,30.70
2018-06-10T11:50:09.603Z,31.60
2018-06-10T11:52:37.729Z,27.00
2018-06-10T11:55:05.864Z,26.90
2018-06-10T11:57:34.356Z,28.50
2018-06-10T12:00:02.471Z,27.80
2018-06-10T12:02:31.725Z,28.10
2018-06-10T12:04:59.823Z,27.50
2018-06-10T12:07:27.985Z,27.50
2018-06-10T12:09:56.095Z,27.20
2018-06-10T12:12:25.099Z,27.80
2018-06-10T12:14:53.212Z,28.80
2018-06-10T12:17:22.004Z,28.60
2018-06-10T12:19:50.123Z,26.90
2018-06-10T12:22:18.642Z,26.40
2018-06-10T12:24:46.755Z,26.00
2018-06-10T12:27:21.343Z,24.60
2018-06-10T12:29:49.719Z,25.60
2018-06-10T12:32:19.209Z,26.00
2018-06-10T12:34:47.332Z,25.90
2018-06-10T12:37:15.532Z,25.00
2018-06-10T12:39:43.664Z,24.20
2018-06-10T12:42:11.768Z,24.50
2018-06-10T12:44:40.662Z,24.30
2018-06-10T12:47:11.345Z,27.60
2018-06-10T12:49:39.472Z,29.30
2018-06-10T12:52:09.106Z,29.70
2018-06-10T12:54:37.803Z,31.70
2018-06-10T12:57:10.647Z,32.30
2018-06-10T12:59:38.827Z,31.30
2018-06-10T13:02:07.691Z,28.40
2018-06-10T13:04:36.786Z,29.50
2018-06-10T13:07:05.020Z,27.00
2018-06-10T13:09:33.133Z,27.20
2018-06-10T13:12:01.309Z,26.20
2018-06-10T13:14:29.452Z,25.40
2018-06-10T13:16:57.578Z,25.50
2018-06-10T13:19:25.675Z,25.40
2018-06-10T13:21:53.787Z,25.60
2018-06-10T13:24:21.892Z,26.30
2018-06-10T13:26:50.875Z,26.50
2018-06-10T13:29:19.002Z,26.40
2018-06-10T13:31:47.128Z,27.60
2018-06-10T13:34:15.249Z,22.90
2018-06-10T13:36:44.395Z,22.40
2018-06-10T13:39:12.520Z,20.50
2018-06-10T13:41:41.555Z,14.70
2018-06-10T13:44:10.062Z,13.70
2018-06-10T13:46:38.314Z,12.50
2018-06-10T13:49:06.435Z,12.80
2018-06-10T13:51:34.552Z,10.50
2018-06-10T13:54:03.468Z,11.30
2018-06-10T13:56:31.638Z,8.80
2018-06-10T13:58:59.758Z,8.90
2018-06-10T14:01:27.872Z,9.10
2018-06-10T14:03:56.092Z,8.70
2018-06-10T14:06:24.342Z,8.80
2018-06-10T14:08:52.476Z,10.60
2018-06-10T14:11:20.592Z,9.70
2018-06-10T14:13:49.465Z,11.10
2018-06-10T14:16:17.714Z,10.50
2018-06-10T14:18:45.833Z,10.70
2018-06-10T14:21:14.714Z,11.40
2018-06-10T14:23:42.820Z,12.20
2018-06-10T14:26:14.421Z,12.90
2018-06-10T14:28:43.570Z,16.00
2018-06-10T14:31:11.678Z,16.40
2018-06-10T14:33:39.853Z,18.30
2018-06-10T14:36:16.198Z,18.80
2018-06-10T14:38:44.397Z,18.70
2018-06-10T14:41:12.515Z,19.00
2018-06-10T14:43:40.661Z,21.00
2018-06-10T14:46:12.105Z,21.10
2018-06-10T14:48:40.615Z,19.60
2018-06-10T14:51:08.838Z,19.80
2018-06-10T14:53:37.653Z,19.60
2018-06-10T14:56:05.826Z,19.90
2018-06-10T14:58:33.926Z,20.60
2018-06-10T15:01:02.046Z,22.50
2018-06-10T15:03:30.166Z,23.90
2018-06-10T15:05:59.149Z,23.70
2018-06-10T15:08:27.262Z,23.50
2018-06-10T15:10:56.210Z,24.00
2018-06-10T15:13:24.320Z,23.80
2018-06-10T15:15:53.462Z,23.50
2018-06-10T15:18:21.598Z,24.90
2018-06-10T15:20:49.824Z,25.90
2018-06-10T15:23:17.952Z,26.60
2018-06-10T15:25:47.995Z,27.60
2018-06-10T15:28:16.111Z,28.90
2018-06-10T15:30:45.797Z,29.80
2018-06-10T15:33:13.952Z,29.10
2018-06-10T15:35:43.186Z,30.50
2018-06-10T15:38:11.321Z,29.50
2018-06-10T15:40:39.468Z,30.00
2018-06-10T15:43:07.638Z,31.70
2018-06-10T15:45:37.758Z,32.20
2018-06-10T15:48:05.876Z,32.00
2018-06-10T15:50:34.410Z,34.70
2018-06-10T15:53:04.114Z,34.00
2018-06-10T15:55:33.274Z,32.30
2018-06-10T15:58:01.396Z,33.80
2018-06-10T16:00:29.510Z,35.80
2018-06-10T16:02:57.762Z,40.00
2018-06-10T16:05:25.976Z,45.70
2018-06-10T16:07:54.090Z,45.90
2018-06-10T16:10:22.267Z,41.60
2018-06-10T16:12:51.426Z,46.10
2018-06-10T16:15:19.542Z,45.30
2018-06-10T16:17:47.665Z,37.70
2018-06-10T16:20:15.780Z,32.70
2018-06-10T16:22:43.904Z,24.30
2018-06-10T16:25:12.005Z,22.60
2018-06-10T16:27:40.207Z,21.50
2018-06-10T16:30:09.657Z,17.20
2018-06-10T16:32:37.773Z,17.40
2018-06-10T16:35:06.634Z,14.40
2018-06-10T16:37:35.537Z,15.70
2018-06-10T16:40:04.409Z,15.70
2018-06-10T16:42:32.538Z,15.40
2018-06-10T16:45:00.633Z,14.20
2018-06-10T16:47:30.080Z,15.00
2018-06-10T16:49:58.931Z,14.10
2018-06-10T16:52:27.036Z,14.10
2018-06-10T16:54:55.968Z,13.80
2018-06-10T16:57:24.117Z,14.40
2018-06-10T16:59:52.220Z,17.00
2018-06-10T17:02:21.262Z,18.80
2018-06-10T17:04:50.139Z,20.00
2018-06-10T17:07:18.410Z,18.40
2018-06-10T17:09:46.522Z,15.60
2018-06-10T17:12:14.661Z,16.00
2018-06-10T17:14:42.794Z,14.60
2018-06-10T17:17:11.508Z,11.60
2018-06-10T17:19:39.664Z,11.60
2018-06-10T17:22:07.779Z,10.70
2018-06-10T17:24:36.659Z,10.20
2018-06-10T17:27:04.832Z,9.30
2018-06-10T17:29:32.943Z,9.50
2018-06-10T17:32:01.114Z,9.30
2018-06-10T17:34:29.231Z,10.90
2018-06-10T17:36:57.345Z,12.60
2018-06-10T17:39:26.234Z,15.30
2018-06-10T17:41:54.356Z,17.40
2018-06-10T17:44:23.522Z,17.50
2018-06-10T17:46:52.467Z,19.70
2018-06-10T17:49:20.579Z,21.20
2018-06-10T17:51:48.684Z,21.50
2018-06-10T17:54:16.792Z,22.60
2018-06-10T17:56:44.981Z,23.70
2018-06-10T17:59:13.951Z,25.80
2018-06-10T18:01:42.000Z,27.40
2018-06-10T18:04:10.114Z,28.90
2018-06-10T18:06:39.116Z,31.10
2018-06-10T18:09:07.263Z,33.60
2018-06-10T18:11:35.382Z,34.60
2018-06-10T18:14:03.479Z,35.90
2018-06-10T18:16:31.615Z,37.20
2018-06-10T18:18:59.722Z,37.50
2018-06-10T18:21:27.846Z,39.70
2018-06-10T18:23:55.969Z,39.80
2018-06-10T18:26:24.082Z,39.00
2018-06-10T18:28:52.657Z,39.50
2018-06-10T18:31:21.252Z,40.00
2018-06-10T18:33:49.366Z,40.60
2018-06-10T18:36:18.011Z,42.60
2018-06-10T18:38:46.937Z,43.10
2018-06-10T18:41:15.498Z,43.30
2018-06-10T18:43:44.425Z,45.10
2018-06-10T18:46:13.365Z,49.30
2018-06-10T18:48:41.523Z,52.80
2018-06-10T18:51:09.670Z,56.10
2018-06-10T18:53:37.892Z,59.90
2018-06-10T18:56:06.093Z,62.40
2018-06-10T18:58:34.198Z,64.20
2018-06-10T19:01:02.418Z,65.00
2018-06-10T19:03:30.629Z,65.10
2018-06-10T19:05:59.857Z,65.10
2018-06-10T19:08:28.073Z,65.80
2018-06-10T19:10:56.964Z,68.30
2018-06-10T19:13:25.860Z,68.90
2018-06-10T19:16:04.014Z,68.50
2018-06-10T19:18:32.129Z,70.10
2018-06-10T19:21:00.322Z,71.50
2018-06-10T19:23:28.446Z,71.70
2018-06-10T19:25:56.867Z,72.80
2018-06-10T19:28:25.042Z,74.00
2018-06-10T19:30:54.058Z,75.90
2018-06-10T19:33:24.122Z,76.30
2018-06-10T19:35:53.491Z,79.70
2018-06-10T19:38:21.609Z,79.20
2018-06-10T19:40:49.734Z,79.50
2018-06-10T19:43:18.631Z,80.70
2018-06-10T19:45:47.762Z,82.30
2018-06-10T19:48:17.021Z,82.10
2018-06-10T19:50:45.179Z,81.10
2018-06-10T19:53:13.309Z,80.70
2018-06-10T19:55:41.478Z,79.80
2018-06-10T19:58:09.615Z,82.80
2018-06-10T20:00:37.733Z,83.70
2018-06-10T20:03:05.854Z,82.90
2018-06-10T20:05:39.292Z,82.10
2018-06-10T20:08:07.416Z,83.40
2018-06-10T20:10:35.524Z,81.70
2018-06-10T20:13:03.694Z,82.40
2018-06-10T20:15:31.832Z,83.30
2018-06-10T20:18:00.236Z,85.20
2018-06-10T20:20:28.402Z,82.70
2018-06-10T20:22:57.307Z,83.90
2018-06-10T20:25:25.505Z,85.40
2018-06-10T20:27:53.632Z,87.30
2018-06-10T20:30:21.818Z,88.70
2018-06-10T20:32:49.931Z,91.30
2018-06-10T20:35:18.115Z,90.80
2018-06-10T20:37:47.267Z,87.80
2018-06-10T20:40:16.192Z,88.00
2018-06-10T20:42:44.327Z,90.00
2018-06-10T20:45:12.458Z,89.60
2018-06-10T20:47:41.343Z,91.60
2018-06-10T20:50:10.760Z,92.40
2018-06-10T20:52:39.263Z,91.70
2018-06-10T20:55:08.036Z,92.00
2018-06-10T20:57:36.166Z,87.70
2018-06-10T21:00:05.313Z,87.90
2018-06-10T21:02:35.289Z,89.10
2018-06-10T21:05:03.413Z,91.00
2018-06-10T21:07:31.765Z,91.50
2018-06-10T21:10:00.304Z,92.90
2018-06-10T21:12:28.738Z,92.70
2018-06-10T21:14:56.903Z,93.50
2018-06-10T21:17:26.483Z,94.10
2018-06-10T21:19:54.648Z,93.60
2018-06-10T21:22:22.773Z,92.80
2018-06-10T21:24:51.292Z,93.60
2018-06-10T21:27:22.481Z,94.30
2018-06-10T21:29:51.375Z,94.40
2018-06-10T21:32:20.170Z,93.80
2018-06-10T21:34:50.768Z,92.90
2018-06-10T21:37:18.895Z,92.70
2018-06-10T21:42:10.654Z,93.00
2018-06-10T21:44:39.742Z,94.50
2018-06-10T21:47:07.936Z,95.30
2018-06-10T21:49:36.202Z,94.80
2018-06-10T21:52:04.401Z,94.80
2018-06-10T21:54:32.645Z,94.20
2018-06-10T21:57:03.480Z,94.20
2018-06-10T21:59:31.618Z,94.80
2018-06-10T22:02:00.483Z,92.40
2018-06-10T22:04:29.398Z,91.60
2018-06-10T22:06:58.356Z,92.00
2018-06-10T22:09:26.481Z,91.80
2018-06-10T22:11:54.598Z,91.30
2018-06-10T22:14:22.727Z,90.90
2018-06-10T22:16:50.860Z,90.20
2018-06-10T22:19:18.995Z,91.00
2018-06-10T22:21:48.991Z,91.70
2018-06-10T22:24:17.088Z,93.10
2018-06-10T22:26:45.500Z,93.20
2018-06-10T22:29:13.617Z,93.50
2018-06-10T22:31:41.722Z,94.40
2018-06-10T22:34:09.994Z,94.50
2018-06-10T22:36:39.040Z,94.90
2018-06-10T22:39:07.898Z,94.40
2018-06-10T22:41:36.028Z,94.40
2018-06-10T22:44:05.079Z,95.00
2018-06-10T22:46:33.224Z,93.70
2018-06-10T22:49:01.377Z,94.10
2018-06-10T22:51:29.549Z,93.90
2018-06-10T22:53:57.684Z,94.30
2018-06-10T22:56:26.583Z,93.80
2018-06-10T22:58:54.712Z,93.80
2018-06-10T23:01:23.300Z,91.40
2018-06-10T23:03:51.417Z,91.40
2018-06-10T23:06:19.644Z,93.00
2018-06-10T23:08:47.781Z,93.70
2018-06-10T23:11:16.498Z,93.90
2018-06-10T23:13:44.618Z,94.60
2018-06-10T23:16:13.579Z,94.60
2018-06-10T23:18:41.715Z,94.60
2018-06-10T23:21:09.859Z,94.40
2018-06-10T23:23:37.976Z,93.40
2018-06-10T23:26:06.097Z,93.50
2018-06-10T23:28:34.985Z,93.60
2018-06-10T23:31:03.873Z,94.30
2018-06-10T23:33:31.991Z,94.30
2018-06-10T23:36:00.198Z,94.40
2018-06-10T23:38:28.321Z,94.30
2018-06-10T23:40:56.439Z,95.40
2018-06-10T23:43:24.566Z,95.60
2018-06-10T23:45:53.724Z,96.20
2018-06-10T23:48:21.869Z,96.80
2018-06-10T23:50:49.991Z,96.00
2018-06-10T23:53:19.633Z,96.60
2018-06-10T23:55:48.873Z,96.60
2018-06-10T23:58:16.999Z,97.00
